GB-0026 weather

Newton Peveril Airfield
England, United Kingdom

Public forecast

Using degrees Celsius for public forecast. Weather courtesy of forecast.io.

METAR (pilot weather report)

Report is more than 6 hours old.

Closest report is Bournemouth Airport, 9.7 nm (17.9 km) E. Retrieved 2019/07/19 21:50 UTC (7 hours ago):

EGHH 192150Z 21008KT 6000 -RA OVC003 17/17 Q1008

TAF (pilot weather forecast)

Forecast is more than 12 hours old.

Closest forecast is Bournemouth Airport, 9.7 nm (17.9 km) E. Retrieved 2013/12/01 21:21 UTC (6 years ago):

TAF TAF EGHH 010016Z 3021/0106 CNL